sensor_id;sensor_type;location;lat;lon;timestamp;temperature;humidity
9847;DHT22;68671;50.084;8.794;2023-12-20T00:01:59;11.70;99.90
9847;DHT22;68671;50.084;8.794;2023-12-20T00:04:30;11.70;99.90
9847;DHT22;68671;50.084;8.794;2023-12-20T00:06:57;11.60;99.90
9847;DHT22;68671;50.084;8.794;2023-12-20T00:09:26;11.60;99.90
9847;DHT22;68671;50.084;8.794;2023-12-20T00:11:53;11.60;99.90
9847;DHT22;68671;50.084;8.794;2023-12-20T00:14:19;11.60;99.90
9847;DHT22;68671;50.084;8.794;2023-12-20T00:16:47;11.50;99.90
9847;DHT22;68671;50.084;8.794;2023-12-20T00:19:16;11.60;99.90
9847;DHT22;68671;50.084;8.794;2023-12-20T00:21:44;11.60;99.90
9847;DHT22;68671;50.084;8.794;2023-12-20T00:24:11;11.70;99.90
9847;DHT22;68671;50.084;8.794;2023-12-20T00:26:42;11.60;99.90
9847;DHT22;68671;50.084;8.794;2023-12-20T00:29:09;11.50;99.90
9847;DHT22;68671;50.084;8.794;2023-12-20T00:31:36;11.50;99.90
9847;DHT22;68671;50.084;8.794;2023-12-20T00:34:03;11.50;99.90
9847;DHT22;68671;50.084;8.794;2023-12-20T00:36:30;11.40;99.90
9847;DHT22;68671;50.084;8.794;2023-12-20T00:38:57;11.40;99.90
9847;DHT22;68671;50.084;8.794;2023-12-20T00:41:24;11.40;99.90
9847;DHT22;68671;50.084;8.794;2023-12-20T00:43:52;11.40;99.90
9847;DHT22;68671;50.084;8.794;2023-12-20T00:46:19;11.40;99.90
9847;DHT22;68671;50.084;8.794;2023-12-20T00:48:46;11.30;99.90
9847;DHT22;68671;50.084;8.794;2023-12-20T00:51:18;11.40;99.90
9847;DHT22;68671;50.084;8.794;2023-12-20T00:53:45;11.30;99.90
9847;DHT22;68671;50.084;8.794;2023-12-20T00:56:14;11.30;99.90
9847;DHT22;68671;50.084;8.794;2023-12-20T00:58:42;11.30;99.90
9847;DHT22;68671;50.084;8.794;2023-12-20T01:01:10;11.30;99.90
9847;DHT22;68671;50.084;8.794;2023-12-20T01:03:37;11.30;99.90
9847;DHT22;68671;50.084;8.794;2023-12-20T01:06:04;11.30;99.90
9847;DHT22;68671;50.084;8.794;2023-12-20T01:08:31;11.30;99.90
9847;DHT22;68671;50.084;8.794;2023-12-20T01:11:00;11.30;99.90
9847;DHT22;68671;50.084;8.794;2023-12-20T01:13:26;11.30;99.90
9847;DHT22;68671;50.084;8.794;2023-12-20T01:15:56;11.30;99.90
9847;DHT22;68671;50.084;8.794;2023-12-20T01:18:24;11.30;99.90
9847;DHT22;68671;50.084;8.794;2023-12-20T01:20:51;11.30;99.90
9847;DHT22;68671;50.084;8.794;2023-12-20T01:23:18;11.20;99.90
9847;DHT22;68671;50.084;8.794;2023-12-20T01:25:45;11.20;99.90
9847;DHT22;68671;50.084;8.794;2023-12-20T01:28:15;11.20;99.90
9847;DHT22;68671;50.084;8.794;2023-12-20T01:30:42;11.20;99.90
9847;DHT22;68671;50.084;8.794;2023-12-20T01:33:09;11.20;99.90
9847;DHT22;68671;50.084;8.794;2023-12-20T01:35:38;11.20;99.90
9847;DHT22;68671;50.084;8.794;2023-12-20T01:38:06;11.20;99.90
9847;DHT22;68671;50.084;8.794;2023-12-20T01:40:33;11.10;99.90
9847;DHT22;68671;50.084;8.794;2023-12-20T01:43:00;11.10;99.90
9847;DHT22;68671;50.084;8.794;2023-12-20T01:45:27;11.10;99.90
9847;DHT22;68671;50.084;8.794;2023-12-20T01:47:54;11.10;99.90
9847;DHT22;68671;50.084;8.794;2023-12-20T01:50:22;11.10;99.90
9847;DHT22;68671;50.084;8.794;2023-12-20T01:52:52;11.10;99.90
9847;DHT22;68671;50.084;8.794;2023-12-20T01:55:21;11.10;99.90
9847;DHT22;68671;50.084;8.794;2023-12-20T01:57:49;11.10;99.90
9847;DHT22;68671;50.084;8.794;2023-12-20T02:00:16;11.00;99.90
9847;DHT22;68671;50.084;8.794;2023-12-20T02:02:47;11.00;99.90
9847;DHT22;68671;50.084;8.794;2023-12-20T02:05:16;10.90;99.90
9847;DHT22;68671;50.084;8.794;2023-12-20T02:07:43;11.00;99.90
9847;DHT22;68671;50.084;8.794;2023-12-20T02:10:11;11.00;99.90
9847;DHT22;68671;50.084;8.794;2023-12-20T02:12:38;10.90;99.90
9847;DHT22;68671;50.084;8.794;2023-12-20T02:15:06;10.90;99.90
9847;DHT22;68671;50.084;8.794;2023-12-20T02:17:34;10.80;99.90
9847;DHT22;68671;50.084;8.794;2023-12-20T02:20:03;10.80;99.90
9847;DHT22;68671;50.084;8.794;2023-12-20T02:22:32;10.70;99.90
9847;DHT22;68671;50.084;8.794;2023-12-20T02:24:59;10.80;99.90
9847;DHT22;68671;50.084;8.794;2023-12-20T02:27:27;10.70;99.90
9847;DHT22;68671;50.084;8.794;2023-12-20T02:29:54;10.70;99.90
9847;DHT22;68671;50.084;8.794;2023-12-20T02:32:22;10.70;99.90
9847;DHT22;68671;50.084;8.794;2023-12-20T02:34:54;10.70;99.90
9847;DHT22;68671;50.084;8.794;2023-12-20T02:37:21;10.80;99.90
9847;DHT22;68671;50.084;8.794;2023-12-20T02:39:50;10.70;99.90
9847;DHT22;68671;50.084;8.794;2023-12-20T02:42:17;10.70;99.90
9847;DHT22;68671;50.084;8.794;2023-12-20T02:44:44;10.70;99.90
9847;DHT22;68671;50.084;8.794;2023-12-20T02:47:11;10.70;99.90
9847;DHT22;68671;50.084;8.794;2023-12-20T02:49:38;10.70;99.90
9847;DHT22;68671;50.084;8.794;2023-12-20T02:52:05;10.70;99.90
9847;DHT22;68671;50.084;8.794;2023-12-20T02:54:32;10.70;99.90
9847;DHT22;68671;50.084;8.794;2023-12-20T02:57:00;10.70;99.90
9847;DHT22;68671;50.084;8.794;2023-12-20T02:59:29;10.80;99.90
9847;DHT22;68671;50.084;8.794;2023-12-20T03:01:56;10.70;99.90
9847;DHT22;68671;50.084;8.794;2023-12-20T03:04:23;10.70;99.90
9847;DHT22;68671;50.084;8.794;2023-12-20T03:06:50;10.70;99.90
9847;DHT22;68671;50.084;8.794;2023-12-20T03:09:17;10.70;99.90
9847;DHT22;68671;50.084;8.794;2023-12-20T03:11:44;10.60;99.90
9847;DHT22;68671;50.084;8.794;2023-12-20T03:14:13;10.60;99.90
9847;DHT22;68671;50.084;8.794;2023-12-20T03:16:40;10.60;99.90
9847;DHT22;68671;50.084;8.794;2023-12-20T03:19:07;10.60;99.90
9847;DHT22;68671;50.084;8.794;2023-12-20T03:21:33;10.60;99.90
9847;DHT22;68671;50.084;8.794;2023-12-20T03:24:00;10.60;99.90
9847;DHT22;68671;50.084;8.794;2023-12-20T03:26:27;10.60;99.90
9847;DHT22;68671;50.084;8.794;2023-12-20T03:28:54;10.60;99.90
9847;DHT22;68671;50.084;8.794;2023-12-20T03:31:23;10.60;99.90
9847;DHT22;68671;50.084;8.794;2023-12-20T03:33:50;10.50;99.90
9847;DHT22;68671;50.084;8.794;2023-12-20T03:36:19;10.50;99.90
9847;DHT22;68671;50.084;8.794;2023-12-20T03:38:46;10.50;99.90
9847;DHT22;68671;50.084;8.794;2023-12-20T03:41:13;10.40;99.90
9847;DHT22;68671;50.084;8.794;2023-12-20T03:43:40;10.40;99.90
9847;DHT22;68671;50.084;8.794;2023-12-20T03:46:10;10.40;99.90
9847;DHT22;68671;50.084;8.794;2023-12-20T03:48:39;10.30;99.90
9847;DHT22;68671;50.084;8.794;2023-12-20T03:51:08;10.30;99.90
9847;DHT22;68671;50.084;8.794;2023-12-20T03:53:36;10.30;99.90
9847;DHT22;68671;50.084;8.794;2023-12-20T03:56:03;10.30;99.90
9847;DHT22;68671;50.084;8.794;2023-12-20T03:58:35;10.30;99.90
9847;DHT22;68671;50.084;8.794;2023-12-20T04:01:02;10.30;99.90
9847;DHT22;68671;50.084;8.794;2023-12-20T04:03:29;10.20;99.90
9847;DHT22;68671;50.084;8.794;2023-12-20T04:05:57;10.20;99.90
9847;DHT22;68671;50.084;8.794;2023-12-20T04:08:24;10.10;99.90
9847;DHT22;68671;50.084;8.794;2023-12-20T04:10:54;10.10;99.90
9847;DHT22;68671;50.084;8.794;2023-12-20T04:13:21;10.00;99.90
9847;DHT22;68671;50.084;8.794;2023-12-20T04:15:48;10.00;99.90
9847;DHT22;68671;50.084;8.794;2023-12-20T04:18:16;10.00;99.90
9847;DHT22;68671;50.084;8.794;2023-12-20T04:20:46;9.90;99.90
9847;DHT22;68671;50.084;8.794;2023-12-20T04:23:14;9.90;99.90
9847;DHT22;68671;50.084;8.794;2023-12-20T04:25:41;9.80;99.90
9847;DHT22;68671;50.084;8.794;2023-12-20T04:28:08;9.80;99.90
9847;DHT22;68671;50.084;8.794;2023-12-20T04:30:35;9.80;99.90
9847;DHT22;68671;50.084;8.794;2023-12-20T04:33:02;9.80;99.90
9847;DHT22;68671;50.084;8.794;2023-12-20T04:35:29;9.80;99.90
9847;DHT22;68671;50.084;8.794;2023-12-20T04:37:56;9.70;99.90
9847;DHT22;68671;50.084;8.794;2023-12-20T04:40:24;9.80;99.90
9847;DHT22;68671;50.084;8.794;2023-12-20T04:42:51;9.80;99.90
9847;DHT22;68671;50.084;8.794;2023-12-20T04:45:18;9.90;99.90
9847;DHT22;68671;50.084;8.794;2023-12-20T04:47:45;9.90;99.90
9847;DHT22;68671;50.084;8.794;2023-12-20T04:50:13;9.90;99.90
9847;DHT22;68671;50.084;8.794;2023-12-20T04:52:40;10.00;99.90
9847;DHT22;68671;50.084;8.794;2023-12-20T04:55:08;9.90;99.90
9847;DHT22;68671;50.084;8.794;2023-12-20T04:57:36;9.90;99.90
9847;DHT22;68671;50.084;8.794;2023-12-20T05:00:04;9.90;99.90
9847;DHT22;68671;50.084;8.794;2023-12-20T05:02:32;9.90;99.90
9847;DHT22;68671;50.084;8.794;2023-12-20T05:05:01;10.00;99.90
9847;DHT22;68671;50.084;8.794;2023-12-20T05:07:28;10.00;99.90
9847;DHT22;68671;50.084;8.794;2023-12-20T05:09:55;9.90;99.90
9847;DHT22;68671;50.084;8.794;2023-12-20T05:12:22;9.90;99.90
9847;DHT22;68671;50.084;8.794;2023-12-20T05:14:51;9.90;99.90
9847;DHT22;68671;50.084;8.794;2023-12-20T05:17:18;9.90;99.90
9847;DHT22;68671;50.084;8.794;2023-12-20T05:19:46;9.90;99.90
9847;DHT22;68671;50.084;8.794;2023-12-20T05:22:13;9.80;99.90
9847;DHT22;68671;50.084;8.794;2023-12-20T05:24:40;9.80;99.90
9847;DHT22;68671;50.084;8.794;2023-12-20T05:27:07;9.80;99.90
9847;DHT22;68671;50.084;8.794;2023-12-20T05:29:34;9.70;99.90
9847;DHT22;68671;50.084;8.794;2023-12-20T05:32:02;9.70;99.90
9847;DHT22;68671;50.084;8.794;2023-12-20T05:34:30;9.70;99.90
9847;DHT22;68671;50.084;8.794;2023-12-20T05:36:57;9.80;99.90
9847;DHT22;68671;50.084;8.794;2023-12-20T05:39:24;9.80;99.90
9847;DHT22;68671;50.084;8.794;2023-12-20T05:41:53;9.80;99.90
9847;DHT22;68671;50.084;8.794;2023-12-20T05:44:20;9.80;99.90
9847;DHT22;68671;50.084;8.794;2023-12-20T05:46:47;9.80;99.90
9847;DHT22;68671;50.084;8.794;2023-12-20T05:49:16;9.90;99.90
9847;DHT22;68671;50.084;8.794;2023-12-20T05:51:42;9.90;99.90
9847;DHT22;68671;50.084;8.794;2023-12-20T05:54:09;9.80;99.90
9847;DHT22;68671;50.084;8.794;2023-12-20T05:56:36;9.90;99.90
9847;DHT22;68671;50.084;8.794;2023-12-20T05:59:03;9.90;99.90
9847;DHT22;68671;50.084;8.794;2023-12-20T06:01:30;9.80;99.90
9847;DHT22;68671;50.084;8.794;2023-12-20T06:03:57;9.90;99.90
9847;DHT22;68671;50.084;8.794;2023-12-20T06:06:25;9.80;99.90
9847;DHT22;68671;50.084;8.794;2023-12-20T06:08:52;9.80;99.90
9847;DHT22;68671;50.084;8.794;2023-12-20T06:11:19;9.80;99.90
9847;DHT22;68671;50.084;8.794;2023-12-20T06:13:46;9.90;99.90
9847;DHT22;68671;50.084;8.794;2023-12-20T06:16:14;9.80;99.90
9847;DHT22;68671;50.084;8.794;2023-12-20T06:18:41;9.90;99.90
9847;DHT22;68671;50.084;8.794;2023-12-20T06:21:08;9.90;99.90
9847;DHT22;68671;50.084;8.794;2023-12-20T06:23:39;10.00;99.90
9847;DHT22;68671;50.084;8.794;2023-12-20T06:26:09;10.00;99.90
9847;DHT22;68671;50.084;8.794;2023-12-20T06:28:36;10.00;99.90
9847;DHT22;68671;50.084;8.794;2023-12-20T06:31:03;10.00;99.90
9847;DHT22;68671;50.084;8.794;2023-12-20T06:33:30;10.00;99.90
9847;DHT22;68671;50.084;8.794;2023-12-20T06:35:57;9.90;99.90
9847;DHT22;68671;50.084;8.794;2023-12-20T06:38:24;10.00;99.90
9847;DHT22;68671;50.084;8.794;2023-12-20T06:40:53;10.00;99.90
9847;DHT22;68671;50.084;8.794;2023-12-20T06:43:22;10.00;99.90
9847;DHT22;68671;50.084;8.794;2023-12-20T06:45:49;10.00;99.90
9847;DHT22;68671;50.084;8.794;2023-12-20T06:48:16;10.00;99.90
9847;DHT22;68671;50.084;8.794;2023-12-20T06:50:43;10.00;99.90
9847;DHT22;68671;50.084;8.794;2023-12-20T06:53:10;10.00;99.90
9847;DHT22;68671;50.084;8.794;2023-12-20T06:55:37;10.00;99.90
9847;DHT22;68671;50.084;8.794;2023-12-20T06:58:09;10.00;99.90
9847;DHT22;68671;50.084;8.794;2023-12-20T07:00:39;10.00;99.90
9847;DHT22;68671;50.084;8.794;2023-12-20T07:03:06;10.00;99.90
9847;DHT22;68671;50.084;8.794;2023-12-20T07:05:33;10.00;99.90
9847;DHT22;68671;50.084;8.794;2023-12-20T07:08:03;10.00;99.90
9847;DHT22;68671;50.084;8.794;2023-12-20T07:10:30;10.00;99.90
9847;DHT22;68671;50.084;8.794;2023-12-20T07:12:56;10.00;99.90
9847;DHT22;68671;50.084;8.794;2023-12-20T07:15:25;10.00;99.90
9847;DHT22;68671;50.084;8.794;2023-12-20T07:17:52;10.00;99.90
9847;DHT22;68671;50.084;8.794;2023-12-20T07:20:19;10.00;99.90
9847;DHT22;68671;50.084;8.794;2023-12-20T07:22:46;10.00;99.90
9847;DHT22;68671;50.084;8.794;2023-12-20T07:25:13;10.00;99.90
9847;DHT22;68671;50.084;8.794;2023-12-20T07:27:43;10.00;99.90
9847;DHT22;68671;50.084;8.794;2023-12-20T07:30:11;10.00;99.90
9847;DHT22;68671;50.084;8.794;2023-12-20T07:32:39;10.00;99.90
9847;DHT22;68671;50.084;8.794;2023-12-20T07:35:07;10.00;99.90
9847;DHT22;68671;50.084;8.794;2023-12-20T07:37:34;10.00;99.90
9847;DHT22;68671;50.084;8.794;2023-12-20T07:40:01;10.00;99.90
9847;DHT22;68671;50.084;8.794;2023-12-20T07:42:29;10.00;99.90
9847;DHT22;68671;50.084;8.794;2023-12-20T07:44:58;10.00;99.90
9847;DHT22;68671;50.084;8.794;2023-12-20T07:47:25;10.00;99.90
9847;DHT22;68671;50.084;8.794;2023-12-20T07:49:54;10.00;99.90
9847;DHT22;68671;50.084;8.794;2023-12-20T07:52:21;10.00;99.90
9847;DHT22;68671;50.084;8.794;2023-12-20T07:54:51;10.00;99.90
9847;DHT22;68671;50.084;8.794;2023-12-20T07:57:18;10.00;99.90
9847;DHT22;68671;50.084;8.794;2023-12-20T07:59:45;10.00;99.90
9847;DHT22;68671;50.084;8.794;2023-12-20T08:02:12;10.00;99.90
9847;DHT22;68671;50.084;8.794;2023-12-20T08:04:39;10.00;99.90
9847;DHT22;68671;50.084;8.794;2023-12-20T08:07:08;10.00;99.90
9847;DHT22;68671;50.084;8.794;2023-12-20T08:09:35;10.00;99.90
9847;DHT22;68671;50.084;8.794;2023-12-20T08:12:05;10.00;99.90
9847;DHT22;68671;50.084;8.794;2023-12-20T08:14:32;10.00;99.90
9847;DHT22;68671;50.084;8.794;2023-12-20T08:16:59;10.00;99.90
9847;DHT22;68671;50.084;8.794;2023-12-20T08:19:26;10.00;99.90
9847;DHT22;68671;50.084;8.794;2023-12-20T08:21:53;10.00;99.90
9847;DHT22;68671;50.084;8.794;2023-12-20T08:24:22;10.00;99.90
9847;DHT22;68671;50.084;8.794;2023-12-20T08:26:49;9.90;99.90
9847;DHT22;68671;50.084;8.794;2023-12-20T08:29:15;10.00;99.90
9847;DHT22;68671;50.084;8.794;2023-12-20T08:31:43;10.00;99.90
9847;DHT22;68671;50.084;8.794;2023-12-20T08:34:10;10.00;99.90
9847;DHT22;68671;50.084;8.794;2023-12-20T08:36:39;10.00;99.90
9847;DHT22;68671;50.084;8.794;2023-12-20T08:39:06;10.10;99.90
9847;DHT22;68671;50.084;8.794;2023-12-20T08:41:35;10.20;99.90
9847;DHT22;68671;50.084;8.794;2023-12-20T08:44:03;10.10;99.90
9847;DHT22;68671;50.084;8.794;2023-12-20T08:46:30;10.10;99.90
9847;DHT22;68671;50.084;8.794;2023-12-20T08:48:57;10.10;99.90
9847;DHT22;68671;50.084;8.794;2023-12-20T08:51:24;10.10;99.90
9847;DHT22;68671;50.084;8.794;2023-12-20T08:53:51;10.10;99.90
9847;DHT22;68671;50.084;8.794;2023-12-20T08:56:18;10.10;99.90
9847;DHT22;68671;50.084;8.794;2023-12-20T08:58:46;10.10;99.90
9847;DHT22;68671;50.084;8.794;2023-12-20T09:01:13;10.10;99.90
9847;DHT22;68671;50.084;8.794;2023-12-20T09:03:40;10.00;99.90
9847;DHT22;68671;50.084;8.794;2023-12-20T09:06:07;10.10;99.90
9847;DHT22;68671;50.084;8.794;2023-12-20T09:08:34;10.10;99.90
9847;DHT22;68671;50.084;8.794;2023-12-20T09:11:01;10.10;99.90
9847;DHT22;68671;50.084;8.794;2023-12-20T09:13:28;10.10;99.90
9847;DHT22;68671;50.084;8.794;2023-12-20T09:15:58;10.10;99.90
9847;DHT22;68671;50.084;8.794;2023-12-20T09:18:26;10.10;99.90
9847;DHT22;68671;50.084;8.794;2023-12-20T09:20:53;10.10;99.90
9847;DHT22;68671;50.084;8.794;2023-12-20T09:23:19;10.10;99.90
9847;DHT22;68671;50.084;8.794;2023-12-20T09:25:46;10.10;99.90
9847;DHT22;68671;50.084;8.794;2023-12-20T09:28:13;10.10;99.90
9847;DHT22;68671;50.084;8.794;2023-12-20T09:30:40;10.20;99.90
9847;DHT22;68671;50.084;8.794;2023-12-20T09:33:09;10.20;99.90
9847;DHT22;68671;50.084;8.794;2023-12-20T09:35:36;10.20;99.90
9847;DHT22;68671;50.084;8.794;2023-12-20T09:38:04;10.20;99.90
9847;DHT22;68671;50.084;8.794;2023-12-20T09:40:32;10.20;99.90
9847;DHT22;68671;50.084;8.794;2023-12-20T09:43:04;10.30;99.90
9847;DHT22;68671;50.084;8.794;2023-12-20T09:45:31;10.30;99.90
9847;DHT22;68671;50.084;8.794;2023-12-20T09:47:59;10.30;99.90
9847;DHT22;68671;50.084;8.794;2023-12-20T09:50:28;10.30;99.90
9847;DHT22;68671;50.084;8.794;2023-12-20T09:52:57;10.30;99.90
9847;DHT22;68671;50.084;8.794;2023-12-20T09:55:27;10.30;99.90
9847;DHT22;68671;50.084;8.794;2023-12-20T09:57:54;10.30;99.90
9847;DHT22;68671;50.084;8.794;2023-12-20T10:00:21;10.40;99.90
9847;DHT22;68671;50.084;8.794;2023-12-20T10:02:50;10.40;99.90
9847;DHT22;68671;50.084;8.794;2023-12-20T10:05:28;10.40;99.90
9847;DHT22;68671;50.084;8.794;2023-12-20T10:07:55;10.40;99.90
9847;DHT22;68671;50.084;8.794;2023-12-20T10:10:23;10.40;99.90
9847;DHT22;68671;50.084;8.794;2023-12-20T10:13:05;10.40;99.90
9847;DHT22;68671;50.084;8.794;2023-12-20T10:15:33;10.40;99.90
9847;DHT22;68671;50.084;8.794;2023-12-20T10:18:00;10.40;99.90
9847;DHT22;68671;50.084;8.794;2023-12-20T10:20:29;10.50;99.90
9847;DHT22;68671;50.084;8.794;2023-12-20T10:22:56;10.40;99.90
9847;DHT22;68671;50.084;8.794;2023-12-20T10:25:23;10.50;99.90
9847;DHT22;68671;50.084;8.794;2023-12-20T10:30:34;10.50;99.90
9847;DHT22;68671;50.084;8.794;2023-12-20T10:33:05;10.60;99.90
9847;DHT22;68671;50.084;8.794;2023-12-20T10:35:35;10.60;99.90
9847;DHT22;68671;50.084;8.794;2023-12-20T10:38:04;10.60;99.90
9847;DHT22;68671;50.084;8.794;2023-12-20T10:40:34;10.60;99.90
9847;DHT22;68671;50.084;8.794;2023-12-20T10:43:03;10.60;99.90
9847;DHT22;68671;50.084;8.794;2023-12-20T10:45:30;10.60;99.90
9847;DHT22;68671;50.084;8.794;2023-12-20T10:47:58;10.60;99.90
9847;DHT22;68671;50.084;8.794;2023-12-20T10:50:27;10.70;99.90
9847;DHT22;68671;50.084;8.794;2023-12-20T10:52:57;10.70;99.90
9847;DHT22;68671;50.084;8.794;2023-12-20T10:55:24;10.70;99.90
9847;DHT22;68671;50.084;8.794;2023-12-20T10:57:52;10.70;99.90
9847;DHT22;68671;50.084;8.794;2023-12-20T11:00:22;10.70;99.90
9847;DHT22;68671;50.084;8.794;2023-12-20T11:02:50;10.70;99.90
9847;DHT22;68671;50.084;8.794;2023-12-20T11:05:28;10.70;99.90
9847;DHT22;68671;50.084;8.794;2023-12-20T11:08:02;10.70;99.90
9847;DHT22;68671;50.084;8.794;2023-12-20T11:10:41;10.70;99.90
9847;DHT22;68671;50.084;8.794;2023-12-20T11:13:16;10.70;99.90
9847;DHT22;68671;50.084;8.794;2023-12-20T11:15:44;10.80;99.90
9847;DHT22;68671;50.084;8.794;2023-12-20T11:18:11;10.80;99.90
9847;DHT22;68671;50.084;8.794;2023-12-20T11:20:40;10.80;99.90
9847;DHT22;68671;50.084;8.794;2023-12-20T11:23:09;10.80;99.90
9847;DHT22;68671;50.084;8.794;2023-12-20T11:25:51;10.80;99.90
9847;DHT22;68671;50.084;8.794;2023-12-20T11:28:23;10.90;99.90
9847;DHT22;68671;50.084;8.794;2023-12-20T11:30:51;10.90;99.90
9847;DHT22;68671;50.084;8.794;2023-12-20T11:33:22;10.90;99.90
9847;DHT22;68671;50.084;8.794;2023-12-20T11:35:49;10.90;99.90
9847;DHT22;68671;50.084;8.794;2023-12-20T11:38:20;10.80;99.90
9847;DHT22;68671;50.084;8.794;2023-12-20T11:40:48;10.80;99.90
9847;DHT22;68671;50.084;8.794;2023-12-20T11:43:29;10.80;99.90
9847;DHT22;68671;50.084;8.794;2023-12-20T11:46:02;10.80;99.90
9847;DHT22;68671;50.084;8.794;2023-12-20T11:48:30;10.80;99.90
9847;DHT22;68671;50.084;8.794;2023-12-20T11:50:57;10.90;99.90
9847;DHT22;68671;50.084;8.794;2023-12-20T11:53:26;10.90;99.90
9847;DHT22;68671;50.084;8.794;2023-12-20T11:55:54;10.90;99.90
9847;DHT22;68671;50.084;8.794;2023-12-20T11:58:21;10.90;99.90
9847;DHT22;68671;50.084;8.794;2023-12-20T12:00:49;10.90;99.90
9847;DHT22;68671;50.084;8.794;2023-12-20T12:03:16;11.00;99.90
9847;DHT22;68671;50.084;8.794;2023-12-20T12:05:43;11.00;99.90
9847;DHT22;68671;50.084;8.794;2023-12-20T12:08:12;11.00;99.90
9847;DHT22;68671;50.084;8.794;2023-12-20T12:10:41;11.00;99.90
9847;DHT22;68671;50.084;8.794;2023-12-20T12:13:08;10.90;99.90
9847;DHT22;68671;50.084;8.794;2023-12-20T12:15:36;10.90;99.90
9847;DHT22;68671;50.084;8.794;2023-12-20T12:18:03;10.90;99.90
9847;DHT22;68671;50.084;8.794;2023-12-20T12:20:31;10.90;99.90
9847;DHT22;68671;50.084;8.794;2023-12-20T12:22:59;10.80;99.90
9847;DHT22;68671;50.084;8.794;2023-12-20T12:25:26;10.80;99.90
9847;DHT22;68671;50.084;8.794;2023-12-20T12:27:57;10.80;99.90
9847;DHT22;68671;50.084;8.794;2023-12-20T12:30:25;10.90;99.90
9847;DHT22;68671;50.084;8.794;2023-12-20T12:32:52;10.80;99.90
9847;DHT22;68671;50.084;8.794;2023-12-20T12:35:19;10.90;99.90
9847;DHT22;68671;50.084;8.794;2023-12-20T12:37:46;10.90;99.90
9847;DHT22;68671;50.084;8.794;2023-12-20T12:40:14;10.90;99.90
9847;DHT22;68671;50.084;8.794;2023-12-20T12:42:43;10.90;99.90
9847;DHT22;68671;50.084;8.794;2023-12-20T12:45:12;10.90;99.90
9847;DHT22;68671;50.084;8.794;2023-12-20T12:47:39;10.90;99.90
9847;DHT22;68671;50.084;8.794;2023-12-20T12:50:07;10.90;99.90
9847;DHT22;68671;50.084;8.794;2023-12-20T12:52:34;10.90;99.90
9847;DHT22;68671;50.084;8.794;2023-12-20T12:55:01;11.00;99.90
9847;DHT22;68671;50.084;8.794;2023-12-20T12:57:29;11.00;99.90
9847;DHT22;68671;50.084;8.794;2023-12-20T12:59:56;11.00;99.90
9847;DHT22;68671;50.084;8.794;2023-12-20T13:02:25;11.00;99.90
9847;DHT22;68671;50.084;8.794;2023-12-20T13:04:52;11.10;99.90
9847;DHT22;68671;50.084;8.794;2023-12-20T13:07:19;11.10;99.90
9847;DHT22;68671;50.084;8.794;2023-12-20T13:09:46;11.10;99.90
9847;DHT22;68671;50.084;8.794;2023-12-20T13:12:13;11.10;99.90
9847;DHT22;68671;50.084;8.794;2023-12-20T13:14:40;11.10;99.90
9847;DHT22;68671;50.084;8.794;2023-12-20T13:17:07;11.20;99.90
9847;DHT22;68671;50.084;8.794;2023-12-20T13:19:36;11.20;99.90
9847;DHT22;68671;50.084;8.794;2023-12-20T13:22:03;11.20;99.90
9847;DHT22;68671;50.084;8.794;2023-12-20T13:24:32;11.10;99.90
9847;DHT22;68671;50.084;8.794;2023-12-20T13:26:59;11.10;99.90
9847;DHT22;68671;50.084;8.794;2023-12-20T13:29:27;11.10;99.90
9847;DHT22;68671;50.084;8.794;2023-12-20T13:31:54;11.10;99.90
9847;DHT22;68671;50.084;8.794;2023-12-20T13:34:21;11.00;99.90
9847;DHT22;68671;50.084;8.794;2023-12-20T13:36:49;11.00;99.90
9847;DHT22;68671;50.084;8.794;2023-12-20T13:39:16;11.00;99.90
9847;DHT22;68671;50.084;8.794;2023-12-20T13:41:43;11.00;99.90
9847;DHT22;68671;50.084;8.794;2023-12-20T13:44:10;10.90;99.90
9847;DHT22;68671;50.084;8.794;2023-12-20T13:46:37;10.90;99.90
9847;DHT22;68671;50.084;8.794;2023-12-20T13:49:04;10.90;99.90
9847;DHT22;68671;50.084;8.794;2023-12-20T13:51:31;10.90;99.90
9847;DHT22;68671;50.084;8.794;2023-12-20T13:53:59;10.90;99.90
9847;DHT22;68671;50.084;8.794;2023-12-20T13:56:26;10.90;99.90
9847;DHT22;68671;50.084;8.794;2023-12-20T13:58:53;10.90;99.90
9847;DHT22;68671;50.084;8.794;2023-12-20T14:01:20;11.00;99.90
9847;DHT22;68671;50.084;8.794;2023-12-20T14:03:47;10.90;99.90
9847;DHT22;68671;50.084;8.794;2023-12-20T14:06:14;10.90;99.90
9847;DHT22;68671;50.084;8.794;2023-12-20T14:08:42;10.90;99.90
9847;DHT22;68671;50.084;8.794;2023-12-20T14:11:10;11.00;99.90
9847;DHT22;68671;50.084;8.794;2023-12-20T14:13:38;10.90;99.90
9847;DHT22;68671;50.084;8.794;2023-12-20T14:16:05;10.90;99.90
9847;DHT22;68671;50.084;8.794;2023-12-20T14:18:32;10.90;99.90
9847;DHT22;68671;50.084;8.794;2023-12-20T14:20:59;10.90;99.90
9847;DHT22;68671;50.084;8.794;2023-12-20T14:23:26;10.90;99.90
9847;DHT22;68671;50.084;8.794;2023-12-20T14:25:52;10.80;99.90
9847;DHT22;68671;50.084;8.794;2023-12-20T14:28:22;10.80;99.90
9847;DHT22;68671;50.084;8.794;2023-12-20T14:30:49;10.80;99.90
9847;DHT22;68671;50.084;8.794;2023-12-20T14:33:16;10.80;99.90
9847;DHT22;68671;50.084;8.794;2023-12-20T14:35:46;10.80;99.90
9847;DHT22;68671;50.084;8.794;2023-12-20T14:38:13;10.80;99.90
9847;DHT22;68671;50.084;8.794;2023-12-20T14:40:41;10.80;99.90
9847;DHT22;68671;50.084;8.794;2023-12-20T14:43:07;10.80;99.90
9847;DHT22;68671;50.084;8.794;2023-12-20T14:45:36;10.80;99.90
9847;DHT22;68671;50.084;8.794;2023-12-20T14:48:04;10.90;99.90
9847;DHT22;68671;50.084;8.794;2023-12-20T14:50:31;10.80;99.90
9847;DHT22;68671;50.084;8.794;2023-12-20T14:52:58;10.80;99.90
9847;DHT22;68671;50.084;8.794;2023-12-20T14:55:25;10.80;99.90
9847;DHT22;68671;50.084;8.794;2023-12-20T14:57:55;10.70;99.90
9847;DHT22;68671;50.084;8.794;2023-12-20T15:00:22;10.70;99.90
9847;DHT22;68671;50.084;8.794;2023-12-20T15:02:50;10.70;99.90
9847;DHT22;68671;50.084;8.794;2023-12-20T15:05:19;10.70;99.90
9847;DHT22;68671;50.084;8.794;2023-12-20T15:07:46;10.70;99.90
9847;DHT22;68671;50.084;8.794;2023-12-20T15:10:13;10.80;99.90
9847;DHT22;68671;50.084;8.794;2023-12-20T15:12:42;10.80;99.90
9847;DHT22;68671;50.084;8.794;2023-12-20T15:15:09;10.80;99.90
9847;DHT22;68671;50.084;8.794;2023-12-20T15:17:36;10.80;99.90
9847;DHT22;68671;50.084;8.794;2023-12-20T15:20:06;10.80;99.90
9847;DHT22;68671;50.084;8.794;2023-12-20T15:22:34;10.80;99.90
9847;DHT22;68671;50.084;8.794;2023-12-20T15:25:02;10.80;99.90
9847;DHT22;68671;50.084;8.794;2023-12-20T15:27:31;10.80;99.90
9847;DHT22;68671;50.084;8.794;2023-12-20T15:30:01;10.80;99.90
9847;DHT22;68671;50.084;8.794;2023-12-20T15:32:27;10.90;99.90
9847;DHT22;68671;50.084;8.794;2023-12-20T15:34:53;10.90;99.90
9847;DHT22;68671;50.084;8.794;2023-12-20T15:37:22;10.90;99.90
9847;DHT22;68671;50.084;8.794;2023-12-20T15:39:52;10.90;99.90
9847;DHT22;68671;50.084;8.794;2023-12-20T15:42:18;10.90;99.90
9847;DHT22;68671;50.084;8.794;2023-12-20T15:44:46;10.90;99.90
9847;DHT22;68671;50.084;8.794;2023-12-20T15:47:13;10.90;99.90
9847;DHT22;68671;50.084;8.794;2023-12-20T15:49:40;11.00;99.90
9847;DHT22;68671;50.084;8.794;2023-12-20T15:52:07;10.90;99.90
9847;DHT22;68671;50.084;8.794;2023-12-20T15:54:35;10.90;99.90